Fedora — SLKU — position and weather

sailwx.info

Track history (hours):
 
Tides and Currents Weather Stations Pressure Air Temp Water Temp Dewpoint Dewpoint Depression Visibility Wind Speed Wind Dir Waves Ship Positions

Fedora

Last reported at 2016-Sep-28 08:31 UTC. Time now 2016-Sep-28 12:02 UTC.
Position N 53°35' E 008°33'.

Length 228 m; draft 8.2 m.

Type: Cargo ship. MMSI: 266259000.

Date/timePositionNaut miles runAvg speedWind from/ knotsBaromVisibWave heightAir tempDewpointWater temp
2016-Sep-28 08:31N 53°35' E 008°33'0 0.0
2016-Sep-28 03:31N 53°35' E 008°33'0 0.0
2016-Sep-28 02:31N 53°35' E 008°33'0 0.0
2016-Sep-28 01:34N 53°35' E 008°33'8 4.1
2016-Sep-27 23:33N 53°40' E 008°23'32 7.9
2016-Sep-27 19:33N 53°52' E 007°33'48 9.5
2016-Sep-27 14:33N 53°43' E 006°14'1919.3
2016-Sep-27 13:34N 53°38' E 005°43'5417.9
2016-Sep-27 10:33N 53°07' E 004°28'11711.7
2016-Sep-27 00:33N 51°20' E 003°13'1 0.2
2016-Sep-26 20:31N 51°19' E 003°14'0 0.0
2016-Sep-26 19:31N 51°19' E 003°14'0 0.0
2016-Sep-26 15:31N 51°19' E 003°14'0 0.0
2016-Sep-26 13:31N 51°19' E 003°14'1 0.5
2016-Sep-26 11:33N 51°20' E 003°13'3110.5
2016-Sep-26 08:33N 51°20' E 002°23'11310.3
2016-Sep-25 21:33N 50°19' W 000°08'12210.1
2016-Sep-25 09:28N 49°49' W 003°12'2411.5
2016-Sep-25 07:20N 49°47' W 003°50'  
Track history (hours):
 
Tides and Currents Weather Stations Pressure Air Temp Water Temp Dewpoint Dewpoint Depression Visibility Wind Speed Wind Dir Waves Ship Positions

Fedora

Last reported at 2016-Sep-28 08:31 UTC. Time now 2016-Sep-28 12:02 UTC.
Position N 53°35' E 008°33'.

Length 228 m; draft 8.2 m.

Type: Cargo ship. MMSI: 266259000.

Date/timePositionNaut miles runAvg speedWind from/ knotsBaromVisibWave heightAir tempDewpointWater temp
2016-Sep-28 08:31N 53°35' E 008°33'0 0.0
2016-Sep-28 03:31N 53°35' E 008°33'0 0.0
2016-Sep-28 02:31N 53°35' E 008°33'0 0.0
2016-Sep-28 01:34N 53°35' E 008°33'8 4.1
2016-Sep-27 23:33N 53°40' E 008°23'32 7.9
2016-Sep-27 19:33N 53°52' E 007°33'48 9.5
2016-Sep-27 14:33N 53°43' E 006°14'1919.3
2016-Sep-27 13:34N 53°38' E 005°43'5417.9
2016-Sep-27 10:33N 53°07' E 004°28'11711.7
2016-Sep-27 00:33N 51°20' E 003°13'1 0.2
2016-Sep-26 20:31N 51°19' E 003°14'0 0.0
2016-Sep-26 19:31N 51°19' E 003°14'0 0.0
2016-Sep-26 15:31N 51°19' E 003°14'0 0.0
2016-Sep-26 13:31N 51°19' E 003°14'1 0.5
2016-Sep-26 11:33N 51°20' E 003°13'3110.5
2016-Sep-26 08:33N 51°20' E 002°23'11310.3
2016-Sep-25 21:33N 50°19' W 000°08'12210.1
2016-Sep-25 09:28N 49°49' W 003°12'2411.5
2016-Sep-25 07:20N 49°47' W 003°50'  

Dump ship's entire track history